Time;durP1;ratioP1;P1;durP2;ratioP2;P2;SDS_P1;SDS_P2;PMS_P1;PMS_P2;Temp;Humidity;BMP_temperature;BMP_pressure;BME280_temperature;BME280_humidity;BME280_pressure;Samples;Min_cycle;Max_cycle;Signal;HPM_P1;HPM_P2
2022/03/27 00:00:13;;;;;;;33.00;15.83;;;5.30;97.80;;;;;;5041384;28;20543;-70
2022/03/27 00:02:41;;;;;;;25.33;15.67;;;5.40;96.90;;;;;;5044643;28;20550;-72
2022/03/27 00:05:10;;;;;;;34.20;23.07;;;5.40;96.90;;;;;;5048691;28;20521;-70
2022/03/27 00:07:37;;;;;;;27.23;18.53;;;5.40;96.70;;;;;;5049655;28;20454;-71
2022/03/27 00:10:04;;;;;;;25.13;15.03;;;5.30;98.70;;;;;;5049914;28;20440;-70
2022/03/27 00:12:32;;;;;;;27.30;15.67;;;5.30;99.90;;;;;;5048962;28;20546;-70
2022/03/27 00:15:01;;;;;;;25.77;17.10;;;5.30;99.90;;;;;;5042755;28;20834;-70
2022/03/27 00:17:29;;;;;;;30.10;16.97;;;5.20;99.90;;;;;;5048373;28;20499;-71
2022/03/27 00:19:57;;;;;;;27.47;16.07;;;5.10;99.50;;;;;;5048114;28;20708;-70
2022/03/27 00:22:26;;;;;;;23.70;14.77;;;5.20;99.90;;;;;;5049080;28;20468;-70
2022/03/27 00:24:52;;;;;;;26.07;15.57;;;5.10;99.90;;;;;;5047541;28;20845;-70
2022/03/27 00:27:20;;;;;;;25.00;15.73;;;5.00;99.90;;;;;;5054432;28;20486;-69
2022/03/27 00:29:47;;;;;;;25.47;16.80;;;5.00;99.90;;;;;;5060046;28;20465;-70
2022/03/27 00:32:14;;;;;;;22.53;15.00;;;4.90;99.90;;;;;;5060531;28;20470;-71
2022/03/27 00:34:41;;;;;;;23.20;16.03;;;5.00;99.90;;;;;;5059117;28;20527;-69
2022/03/27 00:37:09;;;;;;;23.50;14.70;;;4.90;99.90;;;;;;5059583;28;20984;-70
2022/03/27 00:39:36;;;;;;;20.13;14.67;;;4.90;99.90;;;;;;5060142;28;20451;-71
2022/03/27 00:42:03;;;;;;;25.03;14.97;;;4.80;99.90;;;;;;5056132;28;20929;-70
2022/03/27 00:44:30;;;;;;;24.30;15.20;;;4.70;99.90;;;;;;5047189;28;20586;-70
2022/03/27 00:46:58;;;;;;;25.27;16.20;;;4.70;99.90;;;;;;5047771;28;20984;-71
2022/03/27 00:49:25;;;;;;;21.63;14.73;;;4.70;99.90;;;;;;5048693;28;20451;-69
2022/03/27 00:51:51;;;;;;;25.57;16.20;;;4.70;99.90;;;;;;5047592;28;20475;-70
2022/03/27 00:54:20;;;;;;;23.73;14.47;;;4.60;99.90;;;;;;5047300;28;20822;-69
2022/03/27 00:56:47;;;;;;;26.60;15.10;;;4.60;99.90;;;;;;5047539;28;20458;-70
2022/03/27 00:59:14;;;;;;;29.70;15.97;;;4.40;99.90;;;;;;5047615;28;20451;-70
2022/03/27 01:01:42;;;;;;;28.60;16.10;;;4.40;99.90;;;;;;5046732;28;20802;-70
2022/03/27 01:04:10;;;;;;;23.50;15.70;;;4.40;99.90;;;;;;5047445;28;20494;-69
2022/03/27 01:06:39;;;;;;;23.67;15.53;;;4.30;99.90;;;;;;5047560;28;20963;-69
2022/03/27 01:11:55;;;;;;;24.93;17.93;;;4.50;99.90;;;;;;5047237;28;20501;-70
2022/03/27 01:14:27;;;;;;;26.33;14.87;;;4.40;99.90;;;;;;5047378;28;20448;-69
2022/03/27 01:16:59;;;;;;;24.20;15.87;;;4.40;99.90;;;;;;5047709;28;20968;-70
2022/03/27 01:19:28;;;;;;;27.93;16.47;;;4.30;99.90;;;;;;5048038;28;20444;-70
2022/03/27 01:21:57;;;;;;;24.47;15.80;;;4.20;99.90;;;;;;5047236;28;20837;-69
2022/03/27 01:24:24;;;;;;;29.30;16.23;;;4.30;99.90;;;;;;5046832;28;20854;-69
2022/03/27 01:26:51;;;;;;;22.50;15.07;;;4.30;99.90;;;;;;5047633;28;20464;-70
2022/03/27 01:29:18;;;;;;;24.27;15.90;;;4.30;99.90;;;;;;5047445;28;20453;-70
2022/03/27 01:31:46;;;;;;;24.13;14.73;;;4.40;99.90;;;;;;5047070;28;20911;-71
2022/03/27 01:34:13;;;;;;;21.33;15.90;;;4.40;99.90;;;;;;5047107;28;21137;-70
2022/03/27 01:36:40;;;;;;;24.67;14.50;;;4.30;99.90;;;;;;5046977;28;20452;-70
2022/03/27 01:39:09;;;;;;;25.77;13.87;;;4.20;99.90;;;;;;5047557;28;20452;-70
2022/03/27 01:41:36;;;;;;;26.73;16.67;;;4.10;99.90;;;;;;5046724;28;21049;-69
2022/03/27 01:44:04;;;;;;;27.20;15.83;;;4.00;99.90;;;;;;5042959;28;20479;-69
2022/03/27 01:46:32;;;;;;;24.10;15.10;;;4.10;99.90;;;;;;5047931;28;20458;-71
2022/03/27 01:49:00;;;;;;;23.00;15.77;;;4.00;99.90;;;;;;5047509;28;20451;-71
2022/03/27 01:51:28;;;;;;;22.43;14.40;;;3.90;99.90;;;;;;5035548;28;20471;-70
2022/03/27 01:53:55;;;;;;;29.37;15.97;;;3.90;99.90;;;;;;5048094;28;20432;-71
2022/03/27 01:56:24;;;;;;;22.23;14.90;;;3.90;99.90;;;;;;5048153;28;20883;-71
2022/03/27 01:58:51;;;;;;;25.37;15.23;;;4.00;99.90;;;;;;5048918;28;20451;-70
2022/03/27 02:01:19;;;;;;;22.50;14.50;;;4.10;99.90;;;;;;5049102;28;20980;-70
2022/03/27 02:03:46;;;;;;;22.67;14.57;;;4.10;99.90;;;;;;5044115;28;20687;-70
2022/03/27 02:06:13;;;;;;;23.90;15.27;;;4.10;99.90;;;;;;5048133;28;20475;-71
2022/03/27 02:08:41;;;;;;;26.30;15.47;;;4.10;99.90;;;;;;5052214;28;20523;-71
2022/03/27 02:11:08;;;;;;;29.93;15.73;;;4.10;99.90;;;;;;5052089;28;20956;-71
2022/03/27 02:13:37;;;;;;;23.93;15.37;;;4.10;99.90;;;;;;5051532;28;20448;-70
2022/03/27 02:16:04;;;;;;;24.33;14.40;;;4.00;99.90;;;;;;5051877;28;20527;-70
2022/03/27 02:18:32;;;;;;;22.53;15.10;;;3.90;99.90;;;;;;5052840;28;20487;-71
2022/03/27 02:21:00;;;;;;;21.23;14.23;;;3.80;99.90;;;;;;5052215;28;20447;-71
2022/03/27 02:23:27;;;;;;;23.60;14.87;;;3.80;99.90;;;;;;5051911;28;20545;-71
2022/03/27 02:25:55;;;;;;;26.90;16.00;;;3.70;99.90;;;;;;5051276;28;20462;-70
2022/03/27 02:28:23;;;;;;;25.70;16.67;;;3.60;99.90;;;;;;5052376;28;20444;-71
2022/03/27 02:30:52;;;;;;;30.57;16.70;;;3.50;99.90;;;;;;5052270;28;20451;-71
2022/03/27 02:33:19;;;;;;;26.73;16.17;;;3.50;99.90;;;;;;5051770;28;20448;-70
2022/03/27 02:35:46;;;;;;;22.47;15.10;;;3.40;99.90;;;;;;5051731;28;20451;-70
2022/03/27 02:38:13;;;;;;;25.33;16.10;;;3.40;99.90;;;;;;5052089;28;20834;-71
2022/03/27 02:40:42;;;;;;;24.87;16.03;;;3.40;99.90;;;;;;5048832;28;20447;-70
2022/03/27 02:43:10;;;;;;;26.53;15.47;;;3.50;99.90;;;;;;5031644;28;20836;-71
2022/03/27 02:45:38;;;;;;;25.27;15.43;;;3.50;99.90;;;;;;5031615;28;20503;-71
2022/03/27 02:48:07;;;;;;;23.17;16.33;;;3.50;99.90;;;;;;5040106;28;20451;-70
2022/03/27 02:50:36;;;;;;;33.53;16.10;;;3.40;99.90;;;;;;5051678;28;20444;-70
2022/03/27 02:53:04;;;;;;;26.97;15.60;;;3.40;99.90;;;;;;5050857;28;20562;-71
2022/03/27 02:55:31;;;;;;;25.87;16.20;;;3.50;99.90;;;;;;5051294;28;20440;-71
2022/03/27 02:57:58;;;;;;;31.57;16.20;;;3.50;99.90;;;;;;5052037;28;20527;-71
2022/03/27 03:00:26;;;;;;;23.93;15.83;;;3.40;99.90;;;;;;5052001;28;20816;-71
2022/03/27 03:02:54;;;;;;;33.00;16.60;;;3.30;99.90;;;;;;5051796;28;20472;-70
2022/03/27 03:05:23;;;;;;;28.00;15.60;;;3.40;99.90;;;;;;5051201;28;20530;-70
2022/03/27 03:07:50;;;;;;;28.43;15.33;;;3.30;99.90;;;;;;5052272;28;20547;-70
2022/03/27 03:10:18;;;;;;;25.23;15.53;;;3.30;99.90;;;;;;5051832;28;20454;-70
2022/03/27 03:12:45;;;;;;;28.03;15.20;;;3.30;99.90;;;;;;5051041;28;20506;-70
2022/03/27 03:15:13;;;;;;;24.30;16.60;;;3.30;99.90;;;;;;5050596;28;20845;-71
2022/03/27 03:17:40;;;;;;;24.93;16.40;;;3.30;99.90;;;;;;5051148;28;20971;-71
2022/03/27 03:20:08;;;;;;;23.23;16.10;;;3.30;99.90;;;;;;5051021;28;20490;-71
2022/03/27 03:22:37;;;;;;;31.23;16.90;;;3.20;99.90;;;;;;5050965;28;20479;-71
2022/03/27 03:25:05;;;;;;;29.53;16.77;;;3.20;99.90;;;;;;5049953;28;20542;-70
2022/03/27 03:27:32;;;;;;;40.83;16.57;;;3.10;99.90;;;;;;5051049;28;20452;-70
2022/03/27 03:29:59;;;;;;;24.33;15.97;;;3.00;99.90;;;;;;5051161;28;20444;-71
2022/03/27 03:32:26;;;;;;;26.63;15.33;;;3.00;99.90;;;;;;5050407;28;21021;-71
2022/03/27 03:34:53;;;;;;;29.30;17.57;;;3.00;99.90;;;;;;5049671;28;20444;-71
2022/03/27 03:37:20;;;;;;;29.37;15.20;;;3.00;99.90;;;;;;5051009;28;21148;-69
2022/03/27 03:39:48;;;;;;;28.57;17.57;;;3.00;99.90;;;;;;5050869;28;20451;-71
2022/03/27 03:42:15;;;;;;;29.97;16.33;;;2.90;99.90;;;;;;5050450;28;20482;-71
2022/03/27 03:44:43;;;;;;;25.03;15.33;;;3.00;99.90;;;;;;5049449;28;20474;-71
2022/03/27 03:47:10;;;;;;;28.07;16.10;;;3.00;99.90;;;;;;5050449;28;20487;-70
2022/03/27 03:49:37;;;;;;;27.20;15.53;;;2.80;99.90;;;;;;5050617;28;20505;-71
2022/03/27 03:52:06;;;;;;;22.23;14.70;;;2.80;99.90;;;;;;5050599;28;20476;-69
2022/03/27 03:54:33;;;;;;;26.97;14.77;;;2.70;99.90;;;;;;5049831;28;20483;-70
2022/03/27 03:57:02;;;;;;;24.43;15.53;;;2.70;99.90;;;;;;5050405;28;20957;-70
2022/03/27 03:59:29;;;;;;;28.13;17.90;;;2.70;99.90;;;;;;5050623;28;20949;-71
2022/03/27 04:01:56;;;;;;;25.03;15.90;;;2.70;99.90;;;;;;5050337;28;20471;-71
2022/03/27 04:04:23;;;;;;;25.93;15.40;;;2.70;99.90;;;;;;5049674;28;20583;-70
2022/03/27 04:06:50;;;;;;;27.10;16.20;;;2.70;99.90;;;;;;5050558;28;20531;-71
2022/03/27 04:09:17;;;;;;;24.73;14.57;;;2.70;99.90;;;;;;5050536;28;20480;-70
2022/03/27 04:11:44;;;;;;;26.90;15.70;;;2.70;99.90;;;;;;5050052;28;20472;-71
2022/03/27 04:14:12;;;;;;;24.73;16.07;;;2.70;99.90;;;;;;5049229;28;20455;-71
2022/03/27 04:16:39;;;;;;;26.97;14.47;;;2.60;99.90;;;;;;5050604;28;20466;-70
2022/03/27 04:19:06;;;;;;;25.17;15.00;;;2.60;99.90;;;;;;5050292;28;20459;-71
2022/03/27 04:21:33;;;;;;;27.13;15.50;;;2.60;99.90;;;;;;5050545;28;20475;-70
2022/03/27 04:23:59;;;;;;;21.40;14.93;;;2.60;99.90;;;;;;5049589;28;20968;-70
2022/03/27 04:26:26;;;;;;;29.67;16.60;;;2.60;99.90;;;;;;5049589;28;20459;-70
2022/03/27 04:28:53;;;;;;;28.43;16.77;;;2.50;99.90;;;;;;5049886;28;20452;-71
2022/03/27 04:31:21;;;;;;;24.93;15.53;;;2.60;99.90;;;;;;5049296;28;21032;-70
2022/03/27 04:33:48;;;;;;;27.43;15.00;;;2.50;99.90;;;;;;5049553;28;20547;-71
2022/03/27 04:36:15;;;;;;;24.67;15.90;;;2.40;99.90;;;;;;5049308;28;20934;-71
2022/03/27 04:38:42;;;;;;;25.13;15.60;;;2.50;99.90;;;;;;5050293;28;20448;-70
2022/03/27 04:41:08;;;;;;;21.77;16.40;;;2.50;99.90;;;;;;5049533;28;20451;-70
2022/03/27 04:43:35;;;;;;;28.43;17.10;;;2.50;99.90;;;;;;5049327;28;20991;-69
2022/03/27 04:46:02;;;;;;;26.10;15.07;;;2.50;99.90;;;;;;5048022;28;20494;-70
2022/03/27 04:48:30;;;;;;;29.97;16.03;;;2.40;99.90;;;;;;5049696;28;20443;-71
2022/03/27 04:50:57;;;;;;;25.23;16.17;;;2.30;99.90;;;;;;5048192;28;20534;-70
2022/03/27 04:53:24;;;;;;;21.67;14.40;;;2.40;99.90;;;;;;5049313;28;20455;-69
2022/03/27 04:55:51;;;;;;;30.23;16.60;;;2.30;99.90;;;;;;5049005;28;20473;-70
2022/03/27 04:58:18;;;;;;;27.43;16.60;;;2.20;99.90;;;;;;5049893;28;20444;-71
2022/03/27 05:00:45;;;;;;;33.83;17.87;;;2.10;99.90;;;;;;5050678;28;20535;-69
2022/03/27 05:03:12;;;;;;;32.13;16.53;;;2.10;99.90;;;;;;5049565;28;20503;-70
2022/03/27 05:05:40;;;;;;;26.60;14.90;;;2.10;99.90;;;;;;5049181;28;20483;-71
2022/03/27 05:08:07;;;;;;;25.30;16.00;;;2.10;99.90;;;;;;5049739;28;20950;-69
2022/03/27 05:10:34;;;;;;;26.23;16.27;;;2.20;99.90;;;;;;5050405;28;20454;-70
2022/03/27 05:13:01;;;;;;;24.77;16.03;;;2.20;99.90;;;;;;5049420;28;20997;-70
2022/03/27 05:15:28;;;;;;;26.83;16.10;;;2.20;99.90;;;;;;5048647;28;20824;-70
2022/03/27 05:17:58;;;;;;;25.07;15.20;;;2.10;99.90;;;;;;5049748;28;21096;-70
2022/03/27 05:20:26;;;;;;;25.03;15.47;;;2.10;99.90;;;;;;5049766;28;20483;-70
2022/03/27 05:22:54;;;;;;;26.40;14.80;;;2.10;99.90;;;;;;5049132;28;20475;-69
2022/03/27 05:25:21;;;;;;;22.50;14.90;;;2.00;99.90;;;;;;5048183;28;21067;-69
2022/03/27 05:27:51;;;;;;;24.03;15.63;;;2.00;99.90;;;;;;5049547;28;20458;-70
2022/03/27 05:30:19;;;;;;;28.83;15.43;;;2.00;99.90;;;;;;5049705;28;20448;-71
2022/03/27 05:32:47;;;;;;;25.57;15.60;;;2.00;99.90;;;;;;5049026;28;20464;-70
2022/03/27 05:35:14;;;;;;;22.97;14.97;;;2.10;99.90;;;;;;5048172;28;20447;-70
2022/03/27 05:37:42;;;;;;;30.33;16.13;;;2.20;99.90;;;;;;5049589;28;20558;-71
2022/03/27 05:40:13;;;;;;;27.63;16.20;;;2.20;99.90;;;;;;5049405;28;20451;-71
2022/03/27 05:42:40;;;;;;;29.40;16.53;;;2.30;99.90;;;;;;5050545;28;20475;-71
2022/03/27 05:45:09;;;;;;;25.37;17.80;;;2.30;99.90;;;;;;5052608;28;20483;-70
2022/03/27 05:47:37;;;;;;;24.63;16.27;;;2.30;99.90;;;;;;5052721;28;20496;-71
2022/03/27 05:50:05;;;;;;;23.37;15.60;;;2.30;99.90;;;;;;5053250;28;20548;-72
2022/03/27 05:52:32;;;;;;;29.17;16.73;;;2.30;99.90;;;;;;5052619;28;20846;-72
2022/03/27 05:54:59;;;;;;;25.20;16.97;;;2.30;99.90;;;;;;5052737;28;20543;-71
2022/03/27 05:57:27;;;;;;;25.17;16.63;;;2.30;99.90;;;;;;5052744;28;20535;-70
2022/03/27 05:59:54;;;;;;;20.80;15.63;;;2.40;99.90;;;;;;5052938;28;20446;-71
2022/03/27 06:02:21;;;;;;;23.63;16.10;;;2.60;99.90;;;;;;5052404;28;20567;-69
2022/03/27 06:04:48;;;;;;;28.13;18.67;;;2.70;99.90;;;;;;5052091;28;20855;-71
2022/03/27 06:07:14;;;;;;;25.23;15.40;;;2.70;99.90;;;;;;5052890;28;20455;-71
2022/03/27 06:09:41;;;;;;;28.27;16.97;;;2.70;99.90;;;;;;5052944;28;20448;-71
2022/03/27 06:12:10;;;;;;;25.67;17.10;;;2.80;99.90;;;;;;5052221;28;20460;-71
2022/03/27 06:14:38;;;;;;;22.60;16.43;;;3.00;99.90;;;;;;5051603;28;20444;-71
2022/03/27 06:17:05;;;;;;;31.27;16.30;;;3.10;99.90;;;;;;5052536;28;20447;-71
2022/03/27 06:19:32;;;;;;;29.03;16.83;;;3.20;99.90;;;;;;5052515;28;20448;-71
2022/03/27 06:21:59;;;;;;;26.20;16.23;;;3.20;99.90;;;;;;5051974;28;20547;-71
2022/03/27 06:24:27;;;;;;;27.60;15.87;;;3.30;99.90;;;;;;5051453;28;20448;-71
2022/03/27 06:26:54;;;;;;;25.10;17.10;;;3.40;99.90;;;;;;5052068;28;20470;-71
2022/03/27 06:29:21;;;;;;;22.70;17.27;;;3.50;99.90;;;;;;5052156;28;20564;-72
2022/03/27 06:31:50;;;;;;;26.80;15.90;;;3.60;99.90;;;;;;5052214;28;20486;-70
2022/03/27 06:34:18;;;;;;;27.30;16.80;;;3.60;99.90;;;;;;5051568;28;20455;-71
2022/03/27 06:36:45;;;;;;;27.43;16.00;;;3.80;99.90;;;;;;5052050;28;20451;-71
2022/03/27 06:39:13;;;;;;;26.93;17.80;;;3.90;99.90;;;;;;5052225;28;20448;-71
2022/03/27 06:41:40;;;;;;;32.80;17.33;;;4.00;99.90;;;;;;5053566;28;20468;-71
2022/03/27 06:44:07;;;;;;;25.70;16.27;;;4.00;99.90;;;;;;5050641;28;20448;-71
2022/03/27 06:46:34;;;;;;;26.57;16.53;;;4.20;99.90;;;;;;5051702;28;20479;-70
2022/03/27 06:49:02;;;;;;;29.67;17.10;;;4.50;99.90;;;;;;5052014;28;20444;-71
2022/03/27 06:51:29;;;;;;;23.67;15.37;;;4.60;99.90;;;;;;5051680;28;20482;-71
2022/03/27 06:53:56;;;;;;;31.63;17.00;;;4.80;99.90;;;;;;5051202;28;20454;-70
2022/03/27 06:56:23;;;;;;;23.80;17.00;;;4.90;99.90;;;;;;5051098;28;20452;-69
2022/03/27 06:58:50;;;;;;;25.57;16.63;;;5.00;99.90;;;;;;5052279;28;20448;-71
2022/03/27 07:04:02;;;;;;;24.63;17.37;;;5.20;99.90;;;;;;5051482;28;20446;-71
2022/03/27 07:06:29;;;;;;;26.43;17.27;;;5.40;99.90;;;;;;5051665;28;20856;-71
2022/03/27 07:08:56;;;;;;;29.83;17.37;;;5.50;99.90;;;;;;5051328;28;20483;-70
2022/03/27 07:11:22;;;;;;;25.23;16.77;;;5.70;99.90;;;;;;5051795;28;20482;-72
2022/03/27 07:13:49;;;;;;;25.13;18.20;;;5.90;99.90;;;;;;5051276;28;20440;-71
2022/03/27 07:16:16;;;;;;;26.33;18.80;;;6.00;99.90;;;;;;5050694;28;20454;-70
2022/03/27 07:18:49;;;;;;;28.73;17.30;;;6.20;99.90;;;;;;5051545;28;20864;-71
2022/03/27 07:21:17;;;;;;;27.23;17.70;;;6.30;99.90;;;;;;5051198;28;20464;-71
2022/03/27 07:23:44;;;;;;;23.60;18.50;;;6.50;99.90;;;;;;5050933;28;20448;-71
2022/03/27 07:26:11;;;;;;;28.43;18.70;;;6.70;99.90;;;;;;5050575;28;20488;-71
2022/03/27 07:28:38;;;;;;;24.37;18.20;;;6.90;99.90;;;;;;5051018;28;20448;-71
2022/03/27 07:31:05;;;;;;;24.50;17.80;;;7.00;99.90;;;;;;5051541;28;20519;-70
2022/03/27 07:33:32;;;;;;;26.70;18.70;;;7.20;99.90;;;;;;5051194;28;20994;-71
2022/03/27 07:35:59;;;;;;;22.80;16.97;;;7.30;99.90;;;;;;5050868;28;20440;-70
2022/03/27 07:38:27;;;;;;;24.37;18.37;;;7.40;99.90;;;;;;5052929;28;20456;-72
2022/03/27 07:40:55;;;;;;;26.57;16.70;;;7.60;99.90;;;;;;5051958;28;20454;-71
2022/03/27 07:43:22;;;;;;;24.30;18.27;;;7.80;99.90;;;;;;5052106;28;20869;-71
2022/03/27 07:45:49;;;;;;;27.23;18.70;;;7.90;99.90;;;;;;5051302;28;20526;-72
2022/03/27 07:48:15;;;;;;;24.53;17.00;;;8.00;99.90;;;;;;5051194;28;20444;-71
2022/03/27 07:50:44;;;;;;;22.63;17.70;;;8.20;99.90;;;;;;5051282;28;20451;-72
2022/03/27 07:53:11;;;;;;;27.70;18.60;;;8.30;99.90;;;;;;5050736;28;20472;-72
2022/03/27 07:55:39;;;;;;;27.83;18.50;;;8.40;99.90;;;;;;5050071;28;20444;-72
2022/03/27 07:58:06;;;;;;;25.10;17.77;;;8.50;99.90;;;;;;5050775;28;20456;-72
2022/03/27 08:00:33;;;;;;;22.13;16.52;;;8.70;99.90;;;;;;5050740;28;20424;-72
2022/03/27 08:03:00;;;;;;;27.83;18.87;;;8.80;99.90;;;;;;5049943;28;20221;-70
2022/03/27 08:05:27;;;;;;;23.10;17.10;;;8.90;99.90;;;;;;5048802;28;20514;-71
2022/03/27 08:07:54;;;;;;;24.30;16.30;;;9.10;99.90;;;;;;5050300;28;20459;-71
2022/03/27 08:10:21;;;;;;;23.77;16.40;;;9.20;99.90;;;;;;5050400;28;20526;-71
2022/03/27 08:12:49;;;;;;;28.97;17.73;;;9.40;99.90;;;;;;5049824;28;21007;-71
2022/03/27 08:15:17;;;;;;;24.40;17.87;;;9.50;99.90;;;;;;5049446;28;20455;-71
2022/03/27 08:17:44;;;;;;;22.60;15.30;;;9.70;99.90;;;;;;5049906;28;20448;-70
2022/03/27 08:20:12;;;;;;;24.60;16.87;;;9.90;99.90;;;;;;5050335;28;20452;-70
2022/03/27 08:22:38;;;;;;;23.10;15.87;;;10.00;99.90;;;;;;5049876;28;20468;-70
2022/03/27 08:25:06;;;;;;;23.33;15.07;;;10.20;99.90;;;;;;5048936;28;21120;-69
2022/03/27 08:27:33;;;;;;;20.93;15.80;;;10.40;99.90;;;;;;5050025;28;20539;-70
2022/03/27 08:30:01;;;;;;;18.60;14.03;;;10.50;99.90;;;;;;5049605;28;20435;-71
2022/03/27 08:32:28;;;;;;;24.00;15.10;;;10.80;99.90;;;;;;5049467;28;21117;-70
2022/03/27 08:34:54;;;;;;;20.90;14.90;;;11.00;99.90;;;;;;5049316;28;20476;-71
2022/03/27 08:37:21;;;;;;;25.97;15.77;;;11.20;99.90;;;;;;5050260;28;20526;-70
2022/03/27 08:39:48;;;;;;;20.10;15.63;;;11.40;99.90;;;;;;5047211;28;20448;-70
2022/03/27 08:42:19;;;;;;;22.83;14.80;;;11.60;99.60;;;;;;5049558;28;20472;-69
2022/03/27 08:44:47;;;;;;;20.57;14.30;;;11.80;99.30;;;;;;5050963;28;20440;-69
2022/03/27 08:47:22;;;;;;;20.47;13.60;;;12.00;98.80;;;;;;5049284;28;20511;-72
2022/03/27 08:49:54;;;;;;;22.70;13.93;;;12.20;99.30;;;;;;5048563;28;20801;-66
2022/03/27 08:52:35;;;;;;;16.77;13.60;;;12.40;98.90;;;;;;5048935;28;20468;-66
2022/03/27 08:55:06;;;;;;;22.73;15.40;;;12.60;99.10;;;;;;5047715;28;20444;-67
2022/03/27 08:57:58;;;;;;;19.07;15.40;;;12.80;98.90;;;;;;5049733;28;20452;-66
2022/03/27 09:00:28;;;;;;;24.93;14.87;;;13.10;97.90;;;;;;5049464;28;20455;-67
2022/03/27 09:02:58;;;;;;;24.47;15.57;;;13.20;97.30;;;;;;5045974;28;20475;-68
2022/03/27 09:05:25;;;;;;;17.70;13.97;;;13.40;96.20;;;;;;5048289;28;20946;-66
2022/03/27 09:07:54;;;;;;;20.13;15.70;;;13.50;96.40;;;;;;5048771;28;20529;-67
2022/03/27 09:10:22;;;;;;;21.23;14.63;;;13.60;98.10;;;;;;5049242;28;20454;-68
2022/03/27 09:12:51;;;;;;;17.37;13.93;;;13.70;95.30;;;;;;5048555;28;21243;-67
2022/03/27 09:15:19;;;;;;;17.17;13.07;;;13.90;96.10;;;;;;5048823;28;20506;-67
2022/03/27 09:17:59;;;;;;;18.00;13.10;;;14.20;94.20;;;;;;5052779;28;20949;-69
2022/03/27 09:20:37;;;;;;;22.80;15.33;;;14.70;94.10;;;;;;5046843;28;21129;-70
2022/03/27 09:23:13;;;;;;;18.13;13.30;;;15.10;92.80;;;;;;5046328;28;21225;-69
2022/03/27 09:25:48;;;;;;;18.37;14.17;;;15.70;92.90;;;;;;5052143;28;20482;-69
2022/03/27 09:28:26;;;;;;;17.90;14.10;;;16.40;91.50;;;;;;5045308;28;20846;-69
2022/03/27 09:30:54;;;;;;;21.90;15.87;;;16.50;89.70;;;;;;5046670;28;20479;-69
2022/03/27 09:33:49;;;;;;;18.17;14.20;;;16.50;89.50;;;;;;5046584;28;20843;-71
2022/03/27 09:36:18;;;;;;;21.97;15.57;;;16.60;90.80;;;;;;5044744;28;20483;-70
2022/03/27 09:39:12;;;;;;;17.17;13.60;;;17.00;89.70;;;;;;5045845;28;20443;-70
2022/03/27 09:41:42;;;;;;;19.47;13.47;;;17.80;87.50;;;;;;5030672;28;20647;-69
2022/03/27 09:44:11;;;;;;;19.10;14.93;;;18.30;84.70;;;;;;5043855;28;20455;-68
2022/03/27 09:46:53;;;;;;;18.30;14.50;;;18.20;80.60;;;;;;5040677;28;20479;-69
2022/03/27 09:49:23;;;;;;;18.70;14.63;;;18.10;80.60;;;;;;5044874;28;20456;-68
2022/03/27 09:51:59;;;;;;;19.83;15.40;;;17.70;81.70;;;;;;5052926;28;20471;-69
2022/03/27 09:54:27;;;;;;;21.53;15.73;;;17.80;81.00;;;;;;5041937;28;20447;-69
2022/03/27 09:56:54;;;;;;;18.97;15.07;;;17.60;81.40;;;;;;5046442;28;20504;-69
2022/03/27 09:59:30;;;;;;;21.33;15.00;;;17.50;80.60;;;;;;5042698;28;20506;-68
2022/03/27 10:02:17;;;;;;;16.50;13.93;;;17.50;81.20;;;;;;5044947;28;20895;-69
2022/03/27 10:04:57;;;;;;;20.43;14.40;;;17.40;82.60;;;;;;5048991;28;20940;-70
2022/03/27 10:07:25;;;;;;;20.83;15.50;;;17.90;83.30;;;;;;5050417;28;20483;-70
2022/03/27 10:09:53;;;;;;;18.43;16.40;;;18.30;80.40;;;;;;5047308;28;20432;-70
2022/03/27 10:12:25;;;;;;;20.67;15.07;;;18.20;79.90;;;;;;5042125;28;21038;-70
2022/03/27 10:14:55;;;;;;;20.33;15.10;;;18.40;79.80;;;;;;5044180;28;20462;-71
2022/03/27 10:17:23;;;;;;;17.33;14.60;;;18.70;80.10;;;;;;5052609;28;20439;-71
2022/03/27 10:19:52;;;;;;;20.00;14.10;;;18.80;78.90;;;;;;5053221;28;20454;-70
2022/03/27 10:22:21;;;;;;;18.90;14.40;;;19.10;76.40;;;;;;5038088;28;20539;-70
2022/03/27 10:24:52;;;;;;;16.33;14.47;;;19.20;76.50;;;;;;5051959;28;20512;-70
2022/03/27 10:27:20;;;;;;;18.70;15.20;;;19.40;75.90;;;;;;5052654;28;20476;-70
2022/03/27 10:29:48;;;;;;;21.27;15.43;;;19.60;77.00;;;;;;5049103;28;20463;-70
2022/03/27 10:32:15;;;;;;;20.50;16.23;;;19.90;74.70;;;;;;5045810;28;20475;-67
2022/03/27 10:34:49;;;;;;;24.13;16.40;;;19.80;74.20;;;;;;5048735;28;20456;-69
2022/03/27 10:37:26;;;;;;;19.47;15.40;;;19.70;75.20;;;;;;5050931;28;20444;-69
2022/03/27 10:39:59;;;;;;;24.40;15.90;;;19.90;75.40;;;;;;5044296;28;20562;-70
2022/03/27 10:42:49;;;;;;;23.27;15.40;;;19.90;73.30;;;;;;5053179;28;21169;-68
2022/03/27 10:45:19;;;;;;;19.90;16.60;;;20.40;75.00;;;;;;5057515;28;20468;-68
2022/03/27 10:48:09;;;;;;;17.53;15.50;;;20.80;71.00;;;;;;5058751;28;20565;-68
2022/03/27 10:50:50;;;;;;;16.10;14.40;;;21.10;71.70;;;;;;5061957;28;20444;-69
2022/03/27 10:53:20;;;;;;;21.60;14.83;;;21.60;72.90;;;;;;5047143;28;20481;-65
2022/03/27 10:55:48;;;;;;;20.33;15.10;;;22.00;66.90;;;;;;5045856;28;20464;-66
2022/03/27 10:58:33;;;;;;;19.33;15.13;;;22.40;64.60;;;;;;5054174;28;20981;-66
2022/03/27 11:01:01;;;;;;;20.70;14.50;;;22.80;68.20;;;;;;5049888;28;20462;-65
2022/03/27 11:03:52;;;;;;;23.37;14.93;;;22.80;63.20;;;;;;5050843;28;20449;-70
2022/03/27 11:06:31;;;;;;;26.97;15.87;;;22.50;62.40;;;;;;5060450;28;20487;-68
2022/03/27 11:09:00;;;;;;;20.13;14.47;;;22.90;61.60;;;;;;5057716;28;21011;-69
2022/03/27 11:11:56;;;;;;;19.47;15.53;;;23.50;62.00;;;;;;5050661;28;20522;-68
2022/03/27 11:14:53;;;;;;;19.20;14.77;;;24.00;59.70;;;;;;5048158;28;20448;-69
2022/03/27 11:17:34;;;;;;;17.77;14.93;;;24.60;61.20;;;;;;5043281;28;20530;-69
2022/03/27 11:20:02;;;;;;;18.60;13.23;;;25.20;60.10;;;;;;5042785;28;20462;-68
2022/03/27 11:22:47;;;;;;;18.50;12.10;;;24.90;54.80;;;;;;5043793;28;20470;-71
2022/03/27 11:25:45;;;;;;;20.63;15.13;;;24.70;54.50;;;;;;5042694;28;20475;-69
2022/03/27 11:28:14;;;;;;;17.87;12.37;;;24.70;57.80;;;;;;5041650;28;21209;-73
2022/03/27 11:31:17;;;;;;;14.70;11.40;;;24.90;52.40;;;;;;5040928;28;20453;-69
2022/03/27 11:33:45;;;;;;;15.60;13.10;;;25.60;54.70;;;;;;5048409;28;20997;-67
2022/03/27 11:36:25;;;;;;;17.53;11.73;;;25.10;51.00;;;;;;5050875;28;20443;-68
2022/03/27 11:39:04;;;;;;;15.87;12.40;;;24.30;51.10;;;;;;5051755;28;20451;-67
2022/03/27 11:41:42;;;;;;;19.17;11.57;;;24.70;54.00;;;;;;5051020;28;20459;-69
2022/03/27 11:47:11;;;;;;;17.03;14.00;;;26.20;49.50;;;;;;5054080;28;20547;-69
2022/03/27 11:49:39;;;;;;;18.93;12.30;;;26.60;50.20;;;;;;5063618;28;20443;-66
2022/03/27 11:52:07;;;;;;;18.53;13.60;;;26.90;49.70;;;;;;5062556;28;20467;-67
2022/03/27 11:54:34;;;;;;;15.57;12.40;;;27.50;48.20;;;;;;5064987;28;20439;-67
2022/03/27 11:57:04;;;;;;;18.70;13.60;;;28.20;48.20;;;;;;5050010;28;20782;-69
2022/03/27 11:59:31;;;;;;;14.07;11.77;;;28.50;46.00;;;;;;5048514;28;20440;-65
2022/03/27 12:01:59;;;;;;;26.50;13.60;;;28.50;45.60;;;;;;5049965;28;20518;-65
2022/03/27 12:04:28;;;;;;;17.30;12.87;;;27.60;43.90;;;;;;5048002;28;20531;-67
2022/03/27 12:06:56;;;;;;;15.67;12.57;;;27.40;45.70;;;;;;5044564;28;20472;-68
2022/03/27 12:09:25;;;;;;;16.23;12.17;;;28.00;45.00;;;;;;5042970;28;20452;-66
2022/03/27 12:12:06;;;;;;;15.07;11.83;;;27.90;43.50;;;;;;5039470;28;20476;-67
2022/03/27 12:14:34;;;;;;;13.60;11.20;;;28.20;43.00;;;;;;5039575;28;20459;-69
2022/03/27 12:17:00;;;;;;;14.67;11.10;;;28.10;42.80;;;;;;5040685;28;20447;-67
2022/03/27 12:19:27;;;;;;;13.93;10.80;;;28.60;41.60;;;;;;5040768;28;21000;-66
2022/03/27 12:21:54;;;;;;;19.20;11.87;;;28.90;41.90;;;;;;5041205;28;20468;-77
2022/03/27 12:24:21;;;;;;;13.80;10.60;;;28.70;42.90;;;;;;5039438;28;20445;-68
2022/03/27 12:29:49;;;;;;;15.07;10.50;;;30.20;41.10;;;;;;5044469;28;20439;-69
2022/03/27 12:32:18;;;;;;;12.90;9.70;;;31.00;38.90;;;;;;5045466;28;20884;-67
2022/03/27 12:34:47;;;;;;;16.83;10.63;;;31.10;33.90;;;;;;5046964;28;20451;-67
2022/03/27 12:37:16;;;;;;;13.50;9.73;;;30.50;35.80;;;;;;5056406;28;20440;-67
2022/03/27 12:40:05;;;;;;;12.67;10.53;;;29.70;34.80;;;;;;5048876;28;20912;-75
2022/03/27 12:42:39;;;;;;;14.13;10.90;;;28.10;37.50;;;;;;5045944;28;20562;-69
2022/03/27 12:45:11;;;;;;;15.60;11.03;;;28.00;37.60;;;;;;5041114;28;20455;-68
2022/03/27 12:47:39;;;;;;;14.00;9.63;;;28.60;38.50;;;;;;5046212;28;20508;-69
2022/03/27 12:50:07;;;;;;;15.43;10.97;;;29.60;38.50;;;;;;5048982;28;20539;-68
2022/03/27 12:52:35;;;;;;;15.70;10.20;;;30.60;35.70;;;;;;5048821;28;20468;-68
2022/03/27 12:55:04;;;;;;;14.63;10.70;;;31.60;35.30;;;;;;5049148;28;20456;-68